createdAt,value
2018-01-15T00:00:10.528Z,16.90
2018-01-15T00:01:15.506Z,16.90
2018-01-15T00:02:20.341Z,16.90
2018-01-15T00:03:25.281Z,16.90
2018-01-15T00:04:30.213Z,16.90
2018-01-15T00:05:35.150Z,16.90
2018-01-15T00:06:40.030Z,16.90
2018-01-15T00:07:45.162Z,16.90
2018-01-15T00:08:50.218Z,16.90
2018-01-15T00:09:55.196Z,16.90
2018-01-15T00:10:59.959Z,16.90
2018-01-15T00:12:04.765Z,16.90
2018-01-15T00:13:09.503Z,16.90
2018-01-15T00:14:14.441Z,16.80
2018-01-15T00:15:19.260Z,16.90
2018-01-15T00:16:23.956Z,16.80
2018-01-15T00:17:28.845Z,16.80
2018-01-15T00:18:34.180Z,16.80
2018-01-15T00:19:39.135Z,16.80
2018-01-15T00:20:43.912Z,16.80
2018-01-15T00:21:48.626Z,16.80
2018-01-15T00:22:53.418Z,16.80
2018-01-15T00:23:58.225Z,16.80
2018-01-15T00:25:03.152Z,16.70
2018-01-15T00:26:08.164Z,16.80
2018-01-15T00:27:12.963Z,16.80
2018-01-15T00:28:17.826Z,16.80
2018-01-15T00:29:22.623Z,16.80
2018-01-15T00:30:27.637Z,16.70
2018-01-15T00:31:32.446Z,16.70
2018-01-15T00:32:37.377Z,16.70
2018-01-15T00:33:42.328Z,16.70
2018-01-15T00:34:47.094Z,16.70
2018-01-15T00:35:51.904Z,16.70
2018-01-15T00:36:57.611Z,16.70
2018-01-15T00:38:02.440Z,16.70
2018-01-15T00:39:07.217Z,16.70
2018-01-15T00:40:12.169Z,16.70
2018-01-15T00:41:16.958Z,16.70
2018-01-15T00:42:21.711Z,16.70
2018-01-15T00:43:26.589Z,16.70
2018-01-15T00:44:31.458Z,16.70
2018-01-15T00:45:36.231Z,16.70
2018-01-15T00:46:40.969Z,16.70
2018-01-15T00:47:45.862Z,16.70
2018-01-15T00:48:50.620Z,16.70
2018-01-15T00:49:55.417Z,16.60
2018-01-15T00:51:00.191Z,16.60
2018-01-15T00:52:05.111Z,16.60
2018-01-15T00:53:09.936Z,16.60
2018-01-15T00:54:14.706Z,16.60
2018-01-15T00:55:20.770Z,16.60
2018-01-15T00:56:25.471Z,16.60
2018-01-15T00:57:30.383Z,16.60
2018-01-15T00:58:35.120Z,16.60
2018-01-15T00:59:39.915Z,16.60
2018-01-15T01:00:44.692Z,16.60
2018-01-15T01:01:49.475Z,16.60
2018-01-15T01:02:54.302Z,16.60
2018-01-15T01:03:59.300Z,16.60
2018-01-15T01:05:04.064Z,16.60
2018-01-15T01:06:08.802Z,16.60
2018-01-15T01:07:13.521Z,16.60
2018-01-15T01:08:18.282Z,16.60
2018-01-15T01:09:23.023Z,16.60
2018-01-15T01:10:27.748Z,16.60
2018-01-15T01:11:32.632Z,16.60
2018-01-15T01:12:37.422Z,16.60
2018-01-15T01:13:42.940Z,16.60
2018-01-15T01:14:48.062Z,16.60
2018-01-15T01:15:52.878Z,16.60
2018-01-15T01:16:57.615Z,16.60
2018-01-15T01:18:02.555Z,16.60
2018-01-15T01:19:07.291Z,16.60
2018-01-15T01:20:12.095Z,16.60
2018-01-15T01:21:16.932Z,16.50
2018-01-15T01:22:21.647Z,16.50
2018-01-15T01:23:26.513Z,16.50
2018-01-15T01:24:31.241Z,16.50
2018-01-15T01:25:35.992Z,16.50
2018-01-15T01:26:40.873Z,16.50
2018-01-15T01:27:45.673Z,16.50
2018-01-15T01:28:50.684Z,16.50
2018-01-15T01:29:55.519Z,16.50
2018-01-15T01:31:00.279Z,16.50
2018-01-15T01:32:05.221Z,16.50
2018-01-15T01:33:10.374Z,16.50
2018-01-15T01:34:15.208Z,16.50
2018-01-15T01:35:19.950Z,16.50
2018-01-15T01:36:24.755Z,16.50
2018-01-15T01:37:29.692Z,16.50
2018-01-15T01:38:34.494Z,16.50
2018-01-15T01:39:39.400Z,16.50
2018-01-15T01:40:44.124Z,16.50
2018-01-15T01:41:48.895Z,16.50
2018-01-15T01:42:53.750Z,16.50
2018-01-15T01:43:58.706Z,16.50
2018-01-15T01:45:03.963Z,16.50
2018-01-15T01:46:08.703Z,16.50
2018-01-15T01:47:13.432Z,16.50
2018-01-15T01:48:18.339Z,16.50
2018-01-15T01:49:23.089Z,16.50
2018-01-15T01:50:27.830Z,16.50
2018-01-15T01:51:32.590Z,16.50
2018-01-15T01:52:37.515Z,16.50
2018-01-15T01:53:42.251Z,16.50
2018-01-15T01:54:47.119Z,16.50
2018-01-15T01:55:52.005Z,16.40
2018-01-15T01:56:56.792Z,16.50
2018-01-15T01:58:01.603Z,16.50
2018-01-15T01:59:06.401Z,16.40
2018-01-15T02:00:11.302Z,16.50
2018-01-15T02:01:16.055Z,16.40
2018-01-15T02:02:20.910Z,16.40
2018-01-15T02:03:25.717Z,16.40
2018-01-15T02:04:30.642Z,16.40
2018-01-15T02:05:35.377Z,16.40
2018-01-15T02:06:40.086Z,16.40
2018-01-15T02:07:44.945Z,16.40
2018-01-15T02:08:49.783Z,16.40
2018-01-15T02:09:54.656Z,16.40
2018-01-15T02:10:59.403Z,16.40
2018-01-15T02:12:04.445Z,16.40
2018-01-15T02:13:09.659Z,16.40
2018-01-15T02:14:14.493Z,16.40
2018-01-15T02:15:19.237Z,16.40
2018-01-15T02:16:24.015Z,16.40
2018-01-15T02:17:28.743Z,16.40
2018-01-15T02:18:33.461Z,16.40
2018-01-15T02:19:38.192Z,16.40
2018-01-15T02:20:43.013Z,16.40
2018-01-15T02:21:47.915Z,16.40
2018-01-15T02:22:52.703Z,16.40
2018-01-15T02:23:57.391Z,16.40
2018-01-15T02:25:02.129Z,16.40
2018-01-15T02:26:06.972Z,16.40
2018-01-15T02:27:11.866Z,16.40
2018-01-15T02:28:16.740Z,16.40
2018-01-15T02:29:21.666Z,16.30
2018-01-15T02:30:26.953Z,16.30
2018-01-15T02:31:31.851Z,16.30
2018-01-15T02:32:36.530Z,16.30
2018-01-15T02:33:42.425Z,16.30
2018-01-15T02:34:47.120Z,16.30
2018-01-15T02:35:51.954Z,16.30
2018-01-15T02:36:56.801Z,16.30
2018-01-15T02:38:01.732Z,16.40
2018-01-15T02:39:06.534Z,16.30
2018-01-15T02:40:11.383Z,16.30
2018-01-15T02:41:16.237Z,16.30
2018-01-15T02:42:21.070Z,16.30
2018-01-15T02:43:25.805Z,16.30
2018-01-15T02:44:30.475Z,16.30
2018-01-15T02:45:35.236Z,16.30
2018-01-15T02:46:39.996Z,16.30
2018-01-15T02:47:44.758Z,16.30
2018-01-15T02:48:50.192Z,16.30
2018-01-15T02:49:55.055Z,16.30
2018-01-15T02:51:00.638Z,16.30
2018-01-15T02:52:05.351Z,16.30
2018-01-15T02:53:10.097Z,16.30
2018-01-15T02:54:15.009Z,16.30
2018-01-15T02:55:19.679Z,16.30
2018-01-15T02:56:27.371Z,16.30
2018-01-15T02:57:32.063Z,16.30
2018-01-15T02:58:36.830Z,16.30
2018-01-15T02:59:41.563Z,16.30
2018-01-15T03:00:46.350Z,16.30
2018-01-15T03:01:51.059Z,16.30
2018-01-15T03:02:55.940Z,16.30
2018-01-15T03:04:00.692Z,16.30
2018-01-15T03:05:05.625Z,16.30
2018-01-15T03:06:10.440Z,16.30
2018-01-15T03:07:15.652Z,16.30
2018-01-15T03:08:20.430Z,16.30
2018-01-15T03:09:25.263Z,16.30
2018-01-15T03:10:29.992Z,16.30
2018-01-15T03:11:34.865Z,16.30
2018-01-15T03:12:39.573Z,16.30
2018-01-15T03:13:44.323Z,16.30
2018-01-15T03:14:49.138Z,16.30
2018-01-15T03:15:54.044Z,16.30
2018-01-15T03:16:58.865Z,16.30
2018-01-15T03:18:03.775Z,16.30
2018-01-15T03:19:08.525Z,16.30
2018-01-15T03:20:13.187Z,16.30
2018-01-15T03:21:18.061Z,16.30
2018-01-15T03:22:22.801Z,16.30
2018-01-15T03:23:27.521Z,16.30
2018-01-15T03:24:32.378Z,16.30
2018-01-15T03:25:37.826Z,16.30
2018-01-15T03:26:42.736Z,16.30
2018-01-15T03:27:47.617Z,16.30
2018-01-15T03:28:52.494Z,16.20
2018-01-15T03:29:57.273Z,16.20
2018-01-15T03:31:02.093Z,16.20
2018-01-15T03:32:06.830Z,16.30
2018-01-15T03:33:11.806Z,16.30
2018-01-15T03:34:16.543Z,16.20
2018-01-15T03:35:21.343Z,16.20
2018-01-15T03:36:26.114Z,16.20
2018-01-15T03:37:30.930Z,16.20
2018-01-15T03:38:35.976Z,16.20
2018-01-15T03:39:40.822Z,16.20
2018-01-15T03:40:45.539Z,16.20
2018-01-15T03:41:50.272Z,16.20
2018-01-15T03:42:55.124Z,16.20
2018-01-15T03:44:01.025Z,16.20
2018-01-15T03:45:06.022Z,16.20
2018-01-15T03:46:10.823Z,16.20
2018-01-15T03:47:15.587Z,16.20
2018-01-15T03:48:20.454Z,16.20
2018-01-15T03:49:25.431Z,16.20
2018-01-15T03:50:30.243Z,16.20
2018-01-15T03:51:35.227Z,16.20
2018-01-15T03:52:40.148Z,16.20
2018-01-15T03:53:45.010Z,16.20
2018-01-15T03:54:49.788Z,16.20
2018-01-15T03:55:54.581Z,16.20
2018-01-15T03:56:59.553Z,16.20
2018-01-15T03:58:04.346Z,16.20
2018-01-15T03:59:09.106Z,16.20
2018-01-15T04:00:13.873Z,16.20
2018-01-15T04:01:18.587Z,16.20
2018-01-15T04:02:24.287Z,16.20
2018-01-15T04:03:29.302Z,16.20
2018-01-15T04:04:34.163Z,16.20
2018-01-15T04:05:39.049Z,16.20
2018-01-15T04:06:43.979Z,16.20
2018-01-15T04:07:48.898Z,16.20
2018-01-15T04:08:53.870Z,16.20
2018-01-15T04:09:58.667Z,16.20
2018-01-15T04:11:03.449Z,16.20
2018-01-15T04:12:08.317Z,16.20
2018-01-15T04:13:13.247Z,16.20
2018-01-15T04:14:18.181Z,16.20
2018-01-15T04:15:23.134Z,16.20
2018-01-15T04:16:27.857Z,16.20
2018-01-15T04:17:32.592Z,16.20
2018-01-15T04:18:37.568Z,16.20
2018-01-15T04:19:42.349Z,16.20
2018-01-15T04:20:48.186Z,16.20
2018-01-15T04:21:53.173Z,16.20
2018-01-15T04:22:57.928Z,16.20
2018-01-15T04:24:02.875Z,16.20
2018-01-15T04:25:07.773Z,16.20
2018-01-15T04:26:12.683Z,16.20
2018-01-15T04:27:17.575Z,16.20
2018-01-15T04:28:22.460Z,16.20
2018-01-15T04:29:27.339Z,16.20
2018-01-15T04:30:32.111Z,16.20
2018-01-15T04:31:37.047Z,16.20
2018-01-15T04:32:41.802Z,16.20
2018-01-15T04:33:46.642Z,16.20
2018-01-15T04:34:51.443Z,16.20
2018-01-15T04:35:56.462Z,16.20
2018-01-15T04:37:01.382Z,16.20
2018-01-15T04:38:06.210Z,16.20
2018-01-15T04:39:12.242Z,16.20
2018-01-15T04:40:17.093Z,16.20
2018-01-15T04:41:21.838Z,16.20
2018-01-15T04:42:26.966Z,16.20
2018-01-15T04:43:31.850Z,16.20
2018-01-15T04:44:36.857Z,16.20
2018-01-15T04:45:41.813Z,16.10
2018-01-15T04:46:46.566Z,16.10
2018-01-15T04:47:51.282Z,16.10
2018-01-15T04:48:56.020Z,16.10
2018-01-15T04:50:01.112Z,16.10
2018-01-15T04:51:05.894Z,16.10
2018-01-15T04:52:10.693Z,16.10
2018-01-15T04:53:15.818Z,16.10
2018-01-15T04:54:20.746Z,16.10
2018-01-15T04:55:25.548Z,16.10
2018-01-15T04:56:30.392Z,16.10
2018-01-15T04:57:36.281Z,16.10
2018-01-15T04:58:41.271Z,16.10
2018-01-15T04:59:46.001Z,16.10
2018-01-15T05:00:50.739Z,16.10
2018-01-15T05:01:55.480Z,16.10
2018-01-15T05:03:00.511Z,16.10
2018-01-15T05:04:05.556Z,16.20
2018-01-15T05:05:10.368Z,16.20
2018-01-15T05:06:15.165Z,16.20
2018-01-15T05:07:20.120Z,16.20
2018-01-15T05:08:24.843Z,16.20
2018-01-15T05:09:29.816Z,16.20
2018-01-15T05:10:34.684Z,16.20
2018-01-15T05:11:39.558Z,16.20
2018-01-15T05:12:44.520Z,16.20
2018-01-15T05:13:49.423Z,16.20
2018-01-15T05:14:54.325Z,16.20
2018-01-15T05:15:59.724Z,16.20
2018-01-15T05:17:04.662Z,16.20
2018-01-15T05:18:09.510Z,16.20
2018-01-15T05:19:14.341Z,16.20
2018-01-15T05:20:19.267Z,16.20
2018-01-15T05:21:24.169Z,16.20
2018-01-15T05:22:29.195Z,16.20
2018-01-15T05:23:33.958Z,16.20
2018-01-15T05:24:38.863Z,16.20
2018-01-15T05:25:43.579Z,16.20
2018-01-15T05:26:48.449Z,16.20
2018-01-15T05:27:53.449Z,16.20
2018-01-15T05:28:58.262Z,16.20
2018-01-15T05:30:03.208Z,16.20
2018-01-15T05:31:08.271Z,16.20
2018-01-15T05:32:13.106Z,16.20
2018-01-15T05:33:17.975Z,16.20
2018-01-15T05:34:24.035Z,16.20
2018-01-15T05:35:29.046Z,16.20
2018-01-15T05:36:33.877Z,16.20
2018-01-15T05:37:38.899Z,16.20
2018-01-15T05:38:43.800Z,16.20
2018-01-15T05:39:48.496Z,16.20
2018-01-15T05:40:53.217Z,16.20
2018-01-15T05:41:58.065Z,16.10
2018-01-15T05:43:03.034Z,16.10
2018-01-15T05:44:07.955Z,16.10
2018-01-15T05:45:12.693Z,16.10
2018-01-15T05:46:17.657Z,16.20
2018-01-15T05:47:22.475Z,16.10
2018-01-15T05:48:27.267Z,16.20
2018-01-15T05:49:32.230Z,16.10
2018-01-15T05:50:37.026Z,16.10
2018-01-15T05:51:41.897Z,16.10
2018-01-15T05:52:47.389Z,16.10
2018-01-15T05:53:52.186Z,16.10
2018-01-15T05:54:57.097Z,16.10
2018-01-15T05:56:02.012Z,16.10
2018-01-15T05:57:06.829Z,16.10
2018-01-15T05:58:11.560Z,16.10
2018-01-15T05:59:16.285Z,16.10
2018-01-15T06:00:21.252Z,16.10
2018-01-15T06:01:26.183Z,16.10
2018-01-15T06:02:30.926Z,16.10
2018-01-15T06:03:35.923Z,16.10
2018-01-15T06:04:40.846Z,16.10
2018-01-15T06:05:45.735Z,16.10
2018-01-15T06:06:50.729Z,16.00
2018-01-15T06:07:55.494Z,15.80
2018-01-15T06:09:00.239Z,15.50
2018-01-15T06:10:04.989Z,15.20
2018-01-15T06:11:09.786Z,14.90
2018-01-15T06:12:14.709Z,14.80
2018-01-15T06:13:19.484Z,14.70
2018-01-15T06:14:24.304Z,14.80
2018-01-15T06:15:29.051Z,14.90
2018-01-15T06:16:33.917Z,15.10
2018-01-15T06:17:38.713Z,15.20
2018-01-15T06:18:44.072Z,15.40
2018-01-15T06:19:48.890Z,15.50
2018-01-15T06:20:53.927Z,15.70
2018-01-15T06:21:58.686Z,15.80
2018-01-15T06:23:03.572Z,16.00
2018-01-15T06:24:08.537Z,16.20
2018-01-15T06:25:13.498Z,16.30
2018-01-15T06:26:18.240Z,16.50
2018-01-15T06:27:23.158Z,16.60
2018-01-15T06:28:27.994Z,16.80
2018-01-15T06:29:32.950Z,16.90
2018-01-15T06:30:38.776Z,17.00
2018-01-15T06:31:44.175Z,17.10
2018-01-15T06:32:49.102Z,17.20
2018-01-15T06:33:53.996Z,17.20
2018-01-15T06:34:58.889Z,17.30
2018-01-15T06:36:04.102Z,17.30
2018-01-15T06:37:09.041Z,17.40
2018-01-15T06:38:13.910Z,17.40
2018-01-15T06:39:18.886Z,17.50
2018-01-15T06:40:23.695Z,17.50
2018-01-15T06:41:28.703Z,17.60
2018-01-15T06:42:33.694Z,17.60
2018-01-15T06:43:38.469Z,17.70
2018-01-15T06:44:43.214Z,17.80
2018-01-15T06:45:48.135Z,17.80
2018-01-15T06:46:53.002Z,17.90
2018-01-15T06:47:58.447Z,17.90
2018-01-15T06:49:03.638Z,17.90
2018-01-15T06:50:08.603Z,18.00
2018-01-15T06:51:13.464Z,18.00
2018-01-15T06:52:18.535Z,18.00
2018-01-15T06:53:23.560Z,18.00
2018-01-15T06:54:28.331Z,18.00
2018-01-15T06:55:33.146Z,18.00
2018-01-15T06:56:38.142Z,18.00
2018-01-15T06:57:42.938Z,18.00
2018-01-15T06:58:47.825Z,18.00
2018-01-15T06:59:52.781Z,17.90
2018-01-15T07:00:57.848Z,17.90
2018-01-15T07:02:02.899Z,17.90
2018-01-15T07:03:07.973Z,17.90
2018-01-15T07:04:13.005Z,17.90
2018-01-15T07:05:17.907Z,17.90
2018-01-15T07:06:23.616Z,17.90
2018-01-15T07:07:28.528Z,17.90
2018-01-15T07:08:33.460Z,17.90
2018-01-15T07:09:38.294Z,17.90
2018-01-15T07:10:43.256Z,17.90
2018-01-15T07:11:48.330Z,17.90
2018-01-15T07:12:53.450Z,17.90
2018-01-15T07:13:58.410Z,17.90
2018-01-15T07:15:03.362Z,17.90
2018-01-15T07:16:08.276Z,17.90
2018-01-15T07:17:12.983Z,17.90
2018-01-15T07:18:17.904Z,17.90
2018-01-15T07:19:22.692Z,17.90
2018-01-15T07:20:27.475Z,17.90
2018-01-15T07:21:32.408Z,18.00
2018-01-15T07:22:37.270Z,18.00
2018-01-15T07:23:42.238Z,18.00
2018-01-15T07:24:48.115Z,18.00
2018-01-15T07:25:53.234Z,18.10
2018-01-15T07:26:58.205Z,18.10
2018-01-15T07:28:03.094Z,18.10
2018-01-15T07:29:08.061Z,18.10
2018-01-15T07:30:13.059Z,18.10
2018-01-15T07:31:18.005Z,18.10
2018-01-15T07:32:22.930Z,18.10
2018-01-15T07:33:28.817Z,18.10
2018-01-15T07:34:43.411Z,18.20
2018-01-15T07:35:48.331Z,18.10
2018-01-15T07:36:53.337Z,18.10
2018-01-15T07:37:58.115Z,18.20
2018-01-15T07:39:03.091Z,18.20
2018-01-15T07:40:09.127Z,18.20
2018-01-15T07:41:14.291Z,18.20
2018-01-15T07:42:19.022Z,18.30
2018-01-15T07:43:23.801Z,18.20
2018-01-15T07:44:28.772Z,18.20
2018-01-15T07:45:33.592Z,18.10
2018-01-15T07:46:38.384Z,18.10
2018-01-15T07:47:43.214Z,18.10
2018-01-15T07:48:48.209Z,18.10
2018-01-15T07:49:53.028Z,18.10
2018-01-15T07:50:58.453Z,18.10
2018-01-15T07:52:03.166Z,18.10
2018-01-15T07:53:07.941Z,18.10
2018-01-15T07:54:12.675Z,18.10
2018-01-15T07:55:17.524Z,18.00
2018-01-15T07:56:22.493Z,18.00
2018-01-15T07:57:27.473Z,18.10
2018-01-15T07:58:32.909Z,18.10
2018-01-15T07:59:38.063Z,18.10
2018-01-15T08:00:43.000Z,18.10
2018-01-15T08:01:47.758Z,18.10
2018-01-15T08:02:52.528Z,18.10
2018-01-15T08:03:57.471Z,18.10
2018-01-15T08:05:02.467Z,18.10
2018-01-15T08:06:07.410Z,18.10
2018-01-15T08:07:12.405Z,18.10
2018-01-15T08:08:17.310Z,18.10
2018-01-15T08:09:22.117Z,18.10
2018-01-15T08:10:26.958Z,18.10
2018-01-15T08:11:32.005Z,18.10
2018-01-15T08:12:36.884Z,18.10
2018-01-15T08:13:41.797Z,18.10
2018-01-15T08:14:46.520Z,18.10
2018-01-15T08:15:51.408Z,18.00
2018-01-15T08:16:57.582Z,18.00
2018-01-15T08:18:02.544Z,18.00
2018-01-15T08:19:07.488Z,18.00
2018-01-15T08:20:12.425Z,18.00
2018-01-15T08:21:17.285Z,18.00
2018-01-15T08:22:22.151Z,18.00
2018-01-15T08:23:27.014Z,18.00
2018-01-15T08:24:32.035Z,18.00
2018-01-15T08:25:36.886Z,18.00
2018-01-15T08:26:41.829Z,18.00
2018-01-15T08:27:46.849Z,17.90
2018-01-15T08:28:51.709Z,18.00
2018-01-15T08:29:56.722Z,17.90
2018-01-15T08:31:01.511Z,17.90
2018-01-15T08:32:06.430Z,17.90
2018-01-15T08:33:11.195Z,17.90
2018-01-15T08:34:16.134Z,17.90
2018-01-15T08:35:21.999Z,17.90
2018-01-15T08:36:26.839Z,17.90
2018-01-15T08:37:32.024Z,17.90
2018-01-15T08:38:37.560Z,17.90
2018-01-15T08:39:42.535Z,17.90
2018-01-15T08:40:47.506Z,17.90
2018-01-15T08:41:52.300Z,17.90
2018-01-15T08:42:57.098Z,17.90
2018-01-15T08:44:02.035Z,17.80
2018-01-15T08:45:06.967Z,17.80
2018-01-15T08:46:12.036Z,17.80
2018-01-15T08:47:16.866Z,17.90
2018-01-15T08:48:21.679Z,17.80
2018-01-15T08:49:26.436Z,17.80
2018-01-15T08:50:31.645Z,17.80
2018-01-15T08:51:36.617Z,17.80
2018-01-15T08:52:41.521Z,17.80
2018-01-15T08:53:46.651Z,17.80
2018-01-15T08:54:51.485Z,17.80
2018-01-15T08:55:56.458Z,17.80
2018-01-15T08:57:01.265Z,17.80
2018-01-15T08:58:05.960Z,17.80
2018-01-15T08:59:11.051Z,17.70
2018-01-15T09:00:15.837Z,17.70
2018-01-15T09:01:20.846Z,17.70
2018-01-15T09:02:25.731Z,17.70
2018-01-15T09:03:30.628Z,17.70
2018-01-15T09:04:35.610Z,17.70
2018-01-15T09:05:40.418Z,17.70
2018-01-15T09:06:45.398Z,17.70
2018-01-15T09:07:50.314Z,17.70
2018-01-15T09:08:55.151Z,17.70
2018-01-15T09:10:00.123Z,17.70
2018-01-15T09:11:05.212Z,17.70
2018-01-15T09:12:11.416Z,17.70
2018-01-15T09:13:16.368Z,17.60
2018-01-15T09:14:21.165Z,17.50
2018-01-15T09:15:26.229Z,17.50
2018-01-15T09:16:31.191Z,17.50
2018-01-15T09:17:35.973Z,17.40
2018-01-15T09:18:40.728Z,17.40
2018-01-15T09:19:45.789Z,17.30
2018-01-15T09:20:50.608Z,17.30
2018-01-15T09:21:55.599Z,17.30
2018-01-15T09:23:00.532Z,17.30
2018-01-15T09:24:05.394Z,17.20
2018-01-15T09:25:22.478Z,17.20
2018-01-15T09:26:27.322Z,17.20
2018-01-15T09:27:32.108Z,17.20
2018-01-15T09:28:37.139Z,17.20
2018-01-15T09:29:42.132Z,17.30
2018-01-15T09:30:47.247Z,17.30
2018-01-15T09:31:52.246Z,17.30
2018-01-15T09:32:57.173Z,17.40
2018-01-15T09:34:02.313Z,17.40
2018-01-15T09:35:07.391Z,17.50
2018-01-15T09:36:12.383Z,17.50
2018-01-15T09:37:17.401Z,17.60
2018-01-15T09:38:22.698Z,17.50
2018-01-15T09:39:27.854Z,17.50
2018-01-15T09:40:32.907Z,17.50
2018-01-15T09:41:37.865Z,17.50
2018-01-15T09:42:43.195Z,17.60
2018-01-15T09:43:48.411Z,17.50
2018-01-15T09:44:53.337Z,17.50
2018-01-15T09:45:58.227Z,17.60
2018-01-15T09:47:03.280Z,17.60
2018-01-15T09:48:08.294Z,17.60
2018-01-15T09:49:13.311Z,17.60
2018-01-15T09:50:18.149Z,17.60
2018-01-15T09:51:23.155Z,17.70
2018-01-15T09:52:28.200Z,17.60
2018-01-15T09:53:33.026Z,17.60
2018-01-15T09:54:37.914Z,17.70
2018-01-15T09:55:42.870Z,17.70
2018-01-15T09:56:48.027Z,17.70
2018-01-15T09:57:52.889Z,17.70
2018-01-15T09:58:57.843Z,17.70
2018-01-15T10:00:02.970Z,17.70
2018-01-15T10:01:08.983Z,17.70
2018-01-15T10:02:14.014Z,17.70
2018-01-15T10:03:19.007Z,17.70
2018-01-15T10:04:23.838Z,17.70
2018-01-15T10:05:28.769Z,17.70
2018-01-15T10:06:33.635Z,17.80
2018-01-15T10:07:38.413Z,17.80
2018-01-15T10:08:43.880Z,17.80
2018-01-15T10:09:48.960Z,17.90
2018-01-15T10:10:53.798Z,17.80
2018-01-15T10:11:58.658Z,17.80
2018-01-15T10:13:03.371Z,17.70
2018-01-15T10:14:08.120Z,17.70
2018-01-15T10:15:13.019Z,17.70
2018-01-15T10:16:18.008Z,17.60
2018-01-15T10:17:22.907Z,17.60
2018-01-15T10:18:27.715Z,17.60
2018-01-15T10:19:33.750Z,17.60
2018-01-15T10:20:38.532Z,17.50
2018-01-15T10:21:43.362Z,17.60
2018-01-15T10:22:48.245Z,17.60
2018-01-15T10:23:53.141Z,17.50
2018-01-15T10:24:58.075Z,17.50
2018-01-15T10:26:02.928Z,17.60
2018-01-15T10:27:07.917Z,17.60
2018-01-15T10:28:12.808Z,17.50
2018-01-15T10:29:17.645Z,17.50
2018-01-15T10:30:22.598Z,17.50
2018-01-15T10:31:27.413Z,17.50
2018-01-15T10:32:32.306Z,17.50
2018-01-15T10:33:37.161Z,17.50
2018-01-15T10:34:42.089Z,17.50
2018-01-15T10:35:46.826Z,17.40
2018-01-15T10:36:51.891Z,17.40
2018-01-15T10:37:57.998Z,17.40
2018-01-15T10:39:02.852Z,17.40
2018-01-15T10:40:07.791Z,17.40
2018-01-15T10:41:12.695Z,17.40
2018-01-15T10:42:17.781Z,17.40
2018-01-15T10:45:12.593Z,17.50
2018-01-15T10:49:48.736Z,17.50
2018-01-15T10:50:53.584Z,17.50
2018-01-15T10:51:58.636Z,17.50
2018-01-15T10:53:04.016Z,17.40
2018-01-15T10:54:09.055Z,17.40
2018-01-15T10:55:13.814Z,17.40
2018-01-15T10:56:18.850Z,17.40
2018-01-15T10:57:24.026Z,17.40
2018-01-15T10:58:28.926Z,17.40
2018-01-15T10:59:34.030Z,17.30
2018-01-15T11:00:39.053Z,17.30
2018-01-15T11:01:44.097Z,17.40
2018-01-15T11:02:49.030Z,17.40
2018-01-15T11:03:54.086Z,17.40
2018-01-15T11:04:58.916Z,17.40
2018-01-15T11:06:03.985Z,17.40
2018-01-15T11:07:09.031Z,17.40
2018-01-15T11:08:13.872Z,17.40
2018-01-15T11:09:19.013Z,17.40
2018-01-15T11:10:24.126Z,17.40
2018-01-15T11:11:29.271Z,17.50
2018-01-15T11:12:34.141Z,17.50
2018-01-15T11:13:39.105Z,17.40
2018-01-15T11:14:45.008Z,17.40
2018-01-15T11:15:50.277Z,17.40
2018-01-15T11:16:55.239Z,17.40
2018-01-15T11:18:00.258Z,17.30
2018-01-15T11:19:05.192Z,17.30
2018-01-15T11:20:10.271Z,17.30
2018-01-15T11:21:15.109Z,17.30
2018-01-15T11:22:20.165Z,17.20
2018-01-15T11:23:25.164Z,17.30
2018-01-15T11:24:30.141Z,17.30
2018-01-15T11:25:35.024Z,17.30
2018-01-15T11:26:40.175Z,17.30
2018-01-15T11:27:45.305Z,17.30
2018-01-15T11:28:50.091Z,17.30
2018-01-15T11:29:55.045Z,17.20
2018-01-15T11:31:00.233Z,17.20
2018-01-15T11:32:05.370Z,17.20
2018-01-15T11:33:11.207Z,17.20
2018-01-15T11:34:16.288Z,17.30
2018-01-15T11:35:21.489Z,17.30
2018-01-15T11:36:26.575Z,17.30
2018-01-15T11:37:31.559Z,17.30
2018-01-15T11:38:36.629Z,17.30
2018-01-15T11:39:41.599Z,17.30
2018-01-15T11:40:46.568Z,17.30
2018-01-15T11:41:51.336Z,17.30
2018-01-15T11:42:56.162Z,17.30
2018-01-15T11:44:01.161Z,17.30
2018-01-15T11:45:06.172Z,17.30
2018-01-15T11:46:10.956Z,17.30
2018-01-15T11:47:15.800Z,17.40
2018-01-15T11:48:20.671Z,17.40
2018-01-15T11:49:25.462Z,17.40
2018-01-15T11:50:30.437Z,17.40
2018-01-15T11:51:35.394Z,17.40
2018-01-15T11:52:40.419Z,17.40
2018-01-15T11:53:45.217Z,17.40
2018-01-15T11:54:50.108Z,17.40
2018-01-15T11:55:55.105Z,17.40
2018-01-15T11:56:59.962Z,17.40
2018-01-15T11:58:04.967Z,17.40
2018-01-15T11:59:09.786Z,17.40
2018-01-15T12:00:14.616Z,17.40
2018-01-15T12:01:19.400Z,17.40
2018-01-15T12:02:24.575Z,17.40
2018-01-15T12:03:29.357Z,17.40
2018-01-15T12:04:34.119Z,17.40
2018-01-15T12:05:38.922Z,17.40
2018-01-15T12:06:43.796Z,17.40
2018-01-15T12:07:48.731Z,17.40
2018-01-15T12:08:53.680Z,17.40
2018-01-15T12:09:58.647Z,17.40
2018-01-15T12:11:03.430Z,17.40
2018-01-15T12:12:08.333Z,17.40
2018-01-15T12:13:13.222Z,17.40
2018-01-15T12:14:18.011Z,17.40
2018-01-15T12:15:22.957Z,17.40
2018-01-15T12:16:27.884Z,17.30
2018-01-15T12:17:32.658Z,17.30
2018-01-15T12:18:37.686Z,17.30
2018-01-15T12:19:42.452Z,17.30
2018-01-15T12:20:47.427Z,17.30
2018-01-15T12:21:52.459Z,17.30
2018-01-15T12:22:57.348Z,17.30
2018-01-15T12:24:02.268Z,17.30
2018-01-15T12:25:07.165Z,17.30
2018-01-15T12:26:12.119Z,17.30
2018-01-15T12:27:16.841Z,17.30
2018-01-15T12:28:22.006Z,17.30
2018-01-15T12:29:26.941Z,17.30
2018-01-15T12:30:31.871Z,17.30
2018-01-15T12:31:36.803Z,17.30
2018-01-15T12:32:41.620Z,17.30
2018-01-15T12:33:46.547Z,17.30
2018-01-15T12:34:51.323Z,17.30
2018-01-15T12:35:56.267Z,17.30
2018-01-15T12:37:01.119Z,17.30
2018-01-15T12:38:06.112Z,17.30
2018-01-15T12:39:10.905Z,17.30
2018-01-15T12:40:15.713Z,17.30
2018-01-15T12:41:20.481Z,17.30
2018-01-15T12:42:25.293Z,17.30
2018-01-15T12:43:30.228Z,17.30
2018-01-15T12:44:35.167Z,17.30
2018-01-15T12:45:39.954Z,17.30
2018-01-15T12:46:45.099Z,17.30
2018-01-15T12:47:49.923Z,17.30
2018-01-15T12:48:54.823Z,17.30
2018-01-15T12:50:00.099Z,17.30
2018-01-15T12:51:04.872Z,17.20
2018-01-15T12:52:09.609Z,17.20
2018-01-15T12:53:14.561Z,17.30
2018-01-15T12:54:19.579Z,17.30
2018-01-15T12:55:24.571Z,17.30
2018-01-15T12:56:29.445Z,17.30
2018-01-15T12:57:34.254Z,17.30
2018-01-15T12:58:39.177Z,17.30
2018-01-15T12:59:44.052Z,17.30
2018-01-15T13:00:49.027Z,17.30
2018-01-15T13:01:54.039Z,17.30
2018-01-15T13:02:59.159Z,17.30
2018-01-15T13:04:03.897Z,17.20
2018-01-15T13:05:09.862Z,17.20
2018-01-15T13:06:14.694Z,17.20
2018-01-15T13:07:19.711Z,17.20
2018-01-15T13:08:24.662Z,17.20
2018-01-15T13:09:30.266Z,17.20
2018-01-15T13:10:35.185Z,17.10
2018-01-15T13:11:39.935Z,17.10
2018-01-15T13:12:44.804Z,17.20
2018-01-15T13:13:49.724Z,17.20
2018-01-15T13:14:54.691Z,17.20
2018-01-15T13:15:59.605Z,17.20
2018-01-15T13:17:04.615Z,17.20
2018-01-15T13:18:09.519Z,17.20
2018-01-15T13:19:14.377Z,17.20
2018-01-15T13:20:19.246Z,17.20
2018-01-15T13:21:24.147Z,17.20
2018-01-15T13:22:29.049Z,17.20
2018-01-15T13:23:34.135Z,17.20
2018-01-15T13:24:39.115Z,17.20
2018-01-15T13:25:44.094Z,17.20
2018-01-15T13:26:49.065Z,17.20
2018-01-15T13:27:53.969Z,17.20
2018-01-15T13:28:58.799Z,17.20
2018-01-15T13:30:03.611Z,17.20
2018-01-15T13:31:08.368Z,17.20
2018-01-15T13:32:13.450Z,17.20
2018-01-15T13:33:18.307Z,17.20
2018-01-15T13:34:23.355Z,17.20
2018-01-15T13:35:28.137Z,17.20
2018-01-15T13:36:33.180Z,17.20
2018-01-15T13:37:38.125Z,17.20
2018-01-15T13:38:43.057Z,17.20
2018-01-15T13:39:48.019Z,17.20
2018-01-15T13:40:52.990Z,17.30
2018-01-15T13:41:58.022Z,17.30
2018-01-15T13:43:03.106Z,17.30
2018-01-15T13:44:07.846Z,17.20
2018-01-15T13:45:12.682Z,17.30
2018-01-15T13:46:17.575Z,17.30
2018-01-15T13:47:25.237Z,17.30
2018-01-15T13:48:30.168Z,17.30
2018-01-15T13:49:35.207Z,17.30
2018-01-15T13:50:40.044Z,17.40
2018-01-15T13:51:45.037Z,17.30
2018-01-15T13:52:50.012Z,17.40
2018-01-15T13:53:54.919Z,17.40
2018-01-15T13:54:59.905Z,17.40
2018-01-15T13:56:04.725Z,17.40
2018-01-15T13:57:09.978Z,17.40
2018-01-15T13:58:14.777Z,17.50
2018-01-15T13:59:19.903Z,17.50
2018-01-15T14:00:25.214Z,17.50
2018-01-15T14:01:30.243Z,17.50